Adams Landing, Vermont
Current Conditions -  °F | °C
As of 7:53 AM on Wednesday 26 Nov 2014 (Local Time) from KPBG Reporting Station
Overcast Overcast  
Wind Chill: 26°   Ceiling: 3700
Heat Index: 34°   Visibility: 10mi
Dew Point: 23°   Wind: 10mph
Humidity: 64%   Direction: 350°N
Pressure: 30.25"   Gusts: NA
Location:  44.717°N, 73.3067°W
Report Text: KPBG 261253Z AUTO 35009KT 10SM OVC037 01/M05 A3025 RMK AO2 SLP245 T00111050
Loading
Personal Weather Stations






























Interactive Weather Map New forecast layout! Learn more

10-Day Weather Forecast

Advertisements
Track Severe Weather on mobile